sensor_id;sensor_type;location;lat;lon;timestamp;P1;durP1;ratioP1;P2;durP2;ratioP2
27365;SDS011;14837;57.148;-2.144;2023-07-24T00:01:48;2.85;;;1.48;;
27365;SDS011;14837;57.148;-2.144;2023-07-24T00:04:14;3.08;;;1.58;;
27365;SDS011;14837;57.148;-2.144;2023-07-24T00:06:41;5.13;;;1.40;;
27365;SDS011;14837;57.148;-2.144;2023-07-24T00:09:07;2.97;;;1.63;;
27365;SDS011;14837;57.148;-2.144;2023-07-24T00:11:34;2.47;;;1.58;;
27365;SDS011;14837;57.148;-2.144;2023-07-24T00:14:00;1.88;;;1.05;;
27365;SDS011;14837;57.148;-2.144;2023-07-24T00:16:27;5.43;;;1.42;;
27365;SDS011;14837;57.148;-2.144;2023-07-24T00:18:54;3.58;;;1.05;;
27365;SDS011;14837;57.148;-2.144;2023-07-24T00:21:21;4.65;;;1.90;;
27365;SDS011;14837;57.148;-2.144;2023-07-24T00:23:47;1.75;;;1.42;;
27365;SDS011;14837;57.148;-2.144;2023-07-24T00:26:14;3.85;;;1.35;;
27365;SDS011;14837;57.148;-2.144;2023-07-24T00:28:40;4.20;;;1.15;;
27365;SDS011;14837;57.148;-2.144;2023-07-24T00:31:07;5.53;;;1.42;;
27365;SDS011;14837;57.148;-2.144;2023-07-24T00:33:33;4.47;;;1.30;;
27365;SDS011;14837;57.148;-2.144;2023-07-24T00:36:00;2.90;;;1.10;;
27365;SDS011;14837;57.148;-2.144;2023-07-24T00:38:27;2.80;;;1.30;;
27365;SDS011;14837;57.148;-2.144;2023-07-24T00:40:53;3.90;;;1.63;;
27365;SDS011;14837;57.148;-2.144;2023-07-24T00:43:20;3.00;;;1.20;;
27365;SDS011;14837;57.148;-2.144;2023-07-24T00:45:46;2.88;;;1.20;;
27365;SDS011;14837;57.148;-2.144;2023-07-24T00:48:13;1.80;;;0.90;;
27365;SDS011;14837;57.148;-2.144;2023-07-24T00:50:41;2.10;;;0.93;;
27365;SDS011;14837;57.148;-2.144;2023-07-24T00:53:08;3.70;;;1.02;;
27365;SDS011;14837;57.148;-2.144;2023-07-24T00:55:34;1.85;;;0.95;;
27365;SDS011;14837;57.148;-2.144;2023-07-24T00:58:01;1.95;;;1.13;;
27365;SDS011;14837;57.148;-2.144;2023-07-24T01:00:28;2.65;;;1.73;;
27365;SDS011;14837;57.148;-2.144;2023-07-24T01:02:55;2.90;;;1.38;;
27365;SDS011;14837;57.148;-2.144;2023-07-24T01:05:22;2.65;;;0.98;;
27365;SDS011;14837;57.148;-2.144;2023-07-24T01:07:51;1.88;;;1.35;;
27365;SDS011;14837;57.148;-2.144;2023-07-24T01:10:18;3.58;;;1.42;;
27365;SDS011;14837;57.148;-2.144;2023-07-24T01:17:45;4.03;;;1.15;;
27365;SDS011;14837;57.148;-2.144;2023-07-24T01:20:12;3.70;;;1.23;;
27365;SDS011;14837;57.148;-2.144;2023-07-24T01:22:51;2.45;;;1.20;;
27365;SDS011;14837;57.148;-2.144;2023-07-24T01:27:47;2.20;;;1.13;;
27365;SDS011;14837;57.148;-2.144;2023-07-24T01:30:16;3.42;;;1.20;;
27365;SDS011;14837;57.148;-2.144;2023-07-24T01:32:42;1.45;;;1.08;;
27365;SDS011;14837;57.148;-2.144;2023-07-24T01:35:09;3.53;;;1.00;;
27365;SDS011;14837;57.148;-2.144;2023-07-24T01:37:36;2.47;;;1.48;;
27365;SDS011;14837;57.148;-2.144;2023-07-24T01:40:09;1.23;;;0.90;;
27365;SDS011;14837;57.148;-2.144;2023-07-24T01:42:36;2.47;;;1.30;;
27365;SDS011;14837;57.148;-2.144;2023-07-24T01:45:03;3.25;;;1.40;;
27365;SDS011;14837;57.148;-2.144;2023-07-24T01:47:30;2.92;;;0.80;;
27365;SDS011;14837;57.148;-2.144;2023-07-24T01:49:57;4.47;;;1.48;;
27365;SDS011;14837;57.148;-2.144;2023-07-24T01:52:23;6.28;;;2.45;;
27365;SDS011;14837;57.148;-2.144;2023-07-24T01:54:50;2.65;;;1.15;;
27365;SDS011;14837;57.148;-2.144;2023-07-24T01:57:16;1.63;;;1.42;;
27365;SDS011;14837;57.148;-2.144;2023-07-24T01:59:43;1.10;;;0.90;;
27365;SDS011;14837;57.148;-2.144;2023-07-24T02:02:11;2.55;;;1.10;;
27365;SDS011;14837;57.148;-2.144;2023-07-24T02:04:37;3.75;;;1.55;;
27365;SDS011;14837;57.148;-2.144;2023-07-24T02:07:04;1.38;;;0.85;;
27365;SDS011;14837;57.148;-2.144;2023-07-24T02:09:31;2.17;;;1.02;;
27365;SDS011;14837;57.148;-2.144;2023-07-24T02:11:57;2.03;;;1.05;;
27365;SDS011;14837;57.148;-2.144;2023-07-24T02:14:24;2.67;;;1.30;;
27365;SDS011;14837;57.148;-2.144;2023-07-24T02:16:50;2.17;;;1.42;;
27365;SDS011;14837;57.148;-2.144;2023-07-24T02:19:17;1.95;;;1.10;;
27365;SDS011;14837;57.148;-2.144;2023-07-24T02:21:43;2.47;;;1.05;;
27365;SDS011;14837;57.148;-2.144;2023-07-24T02:24:10;3.15;;;1.10;;
27365;SDS011;14837;57.148;-2.144;2023-07-24T02:26:37;3.30;;;1.25;;
27365;SDS011;14837;57.148;-2.144;2023-07-24T02:29:03;1.63;;;0.77;;
27365;SDS011;14837;57.148;-2.144;2023-07-24T02:31:30;4.10;;;1.98;;
27365;SDS011;14837;57.148;-2.144;2023-07-24T02:33:56;2.33;;;1.20;;
27365;SDS011;14837;57.148;-2.144;2023-07-24T02:36:23;3.67;;;1.60;;
27365;SDS011;14837;57.148;-2.144;2023-07-24T02:38:49;1.40;;;1.00;;
27365;SDS011;14837;57.148;-2.144;2023-07-24T02:41:16;1.98;;;1.00;;
27365;SDS011;14837;57.148;-2.144;2023-07-24T02:43:42;4.50;;;1.90;;
27365;SDS011;14837;57.148;-2.144;2023-07-24T02:46:09;2.05;;;1.20;;
27365;SDS011;14837;57.148;-2.144;2023-07-24T02:48:35;1.83;;;0.75;;
27365;SDS011;14837;57.148;-2.144;2023-07-24T02:51:02;1.70;;;0.90;;
27365;SDS011;14837;57.148;-2.144;2023-07-24T02:53:29;1.25;;;0.80;;
27365;SDS011;14837;57.148;-2.144;2023-07-24T02:55:55;4.03;;;1.30;;
27365;SDS011;14837;57.148;-2.144;2023-07-24T02:58:22;2.72;;;1.20;;
27365;SDS011;14837;57.148;-2.144;2023-07-24T03:00:48;1.17;;;0.98;;
27365;SDS011;14837;57.148;-2.144;2023-07-24T03:03:15;3.00;;;1.40;;
27365;SDS011;14837;57.148;-2.144;2023-07-24T03:05:42;1.40;;;1.10;;
27365;SDS011;14837;57.148;-2.144;2023-07-24T03:08:08;3.20;;;1.08;;
27365;SDS011;14837;57.148;-2.144;2023-07-24T03:10:35;1.88;;;1.08;;
27365;SDS011;14837;57.148;-2.144;2023-07-24T03:13:01;1.83;;;1.10;;
27365;SDS011;14837;57.148;-2.144;2023-07-24T03:15:28;1.25;;;0.80;;
27365;SDS011;14837;57.148;-2.144;2023-07-24T03:17:55;3.45;;;1.15;;
27365;SDS011;14837;57.148;-2.144;2023-07-24T03:20:21;1.08;;;0.88;;
27365;SDS011;14837;57.148;-2.144;2023-07-24T03:22:48;2.53;;;0.73;;
27365;SDS011;14837;57.148;-2.144;2023-07-24T03:25:14;2.38;;;1.15;;
27365;SDS011;14837;57.148;-2.144;2023-07-24T03:27:41;2.60;;;1.10;;
27365;SDS011;14837;57.148;-2.144;2023-07-24T03:30:08;2.90;;;1.00;;
27365;SDS011;14837;57.148;-2.144;2023-07-24T03:32:35;1.17;;;0.82;;
27365;SDS011;14837;57.148;-2.144;2023-07-24T03:35:03;3.38;;;1.20;;
27365;SDS011;14837;57.148;-2.144;2023-07-24T03:37:29;1.38;;;1.00;;
27365;SDS011;14837;57.148;-2.144;2023-07-24T03:39:56;2.33;;;0.90;;
27365;SDS011;14837;57.148;-2.144;2023-07-24T03:42:26;2.15;;;0.70;;
27365;SDS011;14837;57.148;-2.144;2023-07-24T03:44:53;1.63;;;0.95;;
27365;SDS011;14837;57.148;-2.144;2023-07-24T03:47:20;1.27;;;0.77;;
27365;SDS011;14837;57.148;-2.144;2023-07-24T03:49:46;1.35;;;0.90;;
27365;SDS011;14837;57.148;-2.144;2023-07-24T03:52:13;1.00;;;0.68;;
27365;SDS011;14837;57.148;-2.144;2023-07-24T03:54:39;2.17;;;0.82;;
27365;SDS011;14837;57.148;-2.144;2023-07-24T03:57:06;1.65;;;0.93;;
27365;SDS011;14837;57.148;-2.144;2023-07-24T03:59:33;2.72;;;0.85;;
27365;SDS011;14837;57.148;-2.144;2023-07-24T04:01:59;1.27;;;1.00;;
27365;SDS011;14837;57.148;-2.144;2023-07-24T04:04:26;1.65;;;0.82;;
27365;SDS011;14837;57.148;-2.144;2023-07-24T04:06:52;1.52;;;0.80;;
27365;SDS011;14837;57.148;-2.144;2023-07-24T04:09:19;2.63;;;0.90;;
27365;SDS011;14837;57.148;-2.144;2023-07-24T04:11:45;2.28;;;0.80;;
27365;SDS011;14837;57.148;-2.144;2023-07-24T04:14:12;1.02;;;0.60;;
27365;SDS011;14837;57.148;-2.144;2023-07-24T04:16:38;1.83;;;0.77;;
27365;SDS011;14837;57.148;-2.144;2023-07-24T04:19:05;1.45;;;0.70;;
27365;SDS011;14837;57.148;-2.144;2023-07-24T04:21:32;2.40;;;1.05;;
27365;SDS011;14837;57.148;-2.144;2023-07-24T04:23:58;3.08;;;1.05;;
27365;SDS011;14837;57.148;-2.144;2023-07-24T04:26:25;1.42;;;0.88;;
27365;SDS011;14837;57.148;-2.144;2023-07-24T04:28:51;1.70;;;0.80;;
27365;SDS011;14837;57.148;-2.144;2023-07-24T04:31:18;2.17;;;0.80;;
27365;SDS011;14837;57.148;-2.144;2023-07-24T04:33:44;0.95;;;0.70;;
27365;SDS011;14837;57.148;-2.144;2023-07-24T04:36:11;3.95;;;0.80;;
27365;SDS011;14837;57.148;-2.144;2023-07-24T04:38:39;1.52;;;0.80;;
27365;SDS011;14837;57.148;-2.144;2023-07-24T04:41:05;2.05;;;0.90;;
27365;SDS011;14837;57.148;-2.144;2023-07-24T04:43:32;1.40;;;0.80;;
27365;SDS011;14837;57.148;-2.144;2023-07-24T04:45:58;1.10;;;0.70;;
27365;SDS011;14837;57.148;-2.144;2023-07-24T04:48:25;0.68;;;0.55;;
27365;SDS011;14837;57.148;-2.144;2023-07-24T04:50:55;0.70;;;0.60;;
27365;SDS011;14837;57.148;-2.144;2023-07-24T04:53:21;0.95;;;0.60;;
27365;SDS011;14837;57.148;-2.144;2023-07-24T04:55:48;1.05;;;0.50;;
27365;SDS011;14837;57.148;-2.144;2023-07-24T04:58:15;1.40;;;0.73;;
27365;SDS011;14837;57.148;-2.144;2023-07-24T05:00:41;1.50;;;0.70;;
27365;SDS011;14837;57.148;-2.144;2023-07-24T05:03:08;2.92;;;0.63;;
27365;SDS011;14837;57.148;-2.144;2023-07-24T05:05:37;0.68;;;0.45;;
27365;SDS011;14837;57.148;-2.144;2023-07-24T05:08:08;1.75;;;0.73;;
27365;SDS011;14837;57.148;-2.144;2023-07-24T05:10:35;1.08;;;0.50;;
27365;SDS011;14837;57.148;-2.144;2023-07-24T05:13:02;1.10;;;0.80;;
27365;SDS011;14837;57.148;-2.144;2023-07-24T05:15:29;1.45;;;0.50;;
27365;SDS011;14837;57.148;-2.144;2023-07-24T05:17:55;1.88;;;0.70;;
27365;SDS011;14837;57.148;-2.144;2023-07-24T05:20:22;0.63;;;0.60;;
27365;SDS011;14837;57.148;-2.144;2023-07-24T05:22:48;1.10;;;0.70;;
27365;SDS011;14837;57.148;-2.144;2023-07-24T05:25:15;1.42;;;0.57;;
27365;SDS011;14837;57.148;-2.144;2023-07-24T05:27:42;1.00;;;0.90;;
27365;SDS011;14837;57.148;-2.144;2023-07-24T05:30:11;1.10;;;0.60;;
27365;SDS011;14837;57.148;-2.144;2023-07-24T05:32:37;1.35;;;0.60;;
27365;SDS011;14837;57.148;-2.144;2023-07-24T05:35:04;1.27;;;1.00;;
27365;SDS011;14837;57.148;-2.144;2023-07-24T05:37:31;2.78;;;0.82;;
27365;SDS011;14837;57.148;-2.144;2023-07-24T05:39:57;0.80;;;0.70;;
27365;SDS011;14837;57.148;-2.144;2023-07-24T05:42:24;1.25;;;0.70;;
27365;SDS011;14837;57.148;-2.144;2023-07-24T05:44:51;1.42;;;0.80;;
27365;SDS011;14837;57.148;-2.144;2023-07-24T05:47:17;2.25;;;0.60;;
27365;SDS011;14837;57.148;-2.144;2023-07-24T05:49:44;1.48;;;0.60;;
27365;SDS011;14837;57.148;-2.144;2023-07-24T05:52:10;1.60;;;0.52;;
27365;SDS011;14837;57.148;-2.144;2023-07-24T05:54:37;2.58;;;0.75;;
27365;SDS011;14837;57.148;-2.144;2023-07-24T05:57:03;1.20;;;0.70;;
27365;SDS011;14837;57.148;-2.144;2023-07-24T05:59:30;1.67;;;0.88;;
27365;SDS011;14837;57.148;-2.144;2023-07-24T06:01:56;1.42;;;0.60;;
27365;SDS011;14837;57.148;-2.144;2023-07-24T06:04:23;1.88;;;0.90;;
27365;SDS011;14837;57.148;-2.144;2023-07-24T06:06:50;1.85;;;1.00;;
27365;SDS011;14837;57.148;-2.144;2023-07-24T06:09:16;1.48;;;1.05;;
27365;SDS011;14837;57.148;-2.144;2023-07-24T06:11:47;1.98;;;0.70;;
27365;SDS011;14837;57.148;-2.144;2023-07-24T06:14:13;1.80;;;0.70;;
27365;SDS011;14837;57.148;-2.144;2023-07-24T06:16:40;2.08;;;0.73;;
27365;SDS011;14837;57.148;-2.144;2023-07-24T06:19:07;1.80;;;0.73;;
27365;SDS011;14837;57.148;-2.144;2023-07-24T06:21:33;1.60;;;0.70;;
27365;SDS011;14837;57.148;-2.144;2023-07-24T06:24:00;1.08;;;0.50;;
27365;SDS011;14837;57.148;-2.144;2023-07-24T06:26:26;1.15;;;0.45;;
27365;SDS011;14837;57.148;-2.144;2023-07-24T06:28:53;2.42;;;0.60;;
27365;SDS011;14837;57.148;-2.144;2023-07-24T06:31:20;1.40;;;0.60;;
27365;SDS011;14837;57.148;-2.144;2023-07-24T06:33:47;0.65;;;0.57;;
27365;SDS011;14837;57.148;-2.144;2023-07-24T06:36:13;1.20;;;0.50;;
27365;SDS011;14837;57.148;-2.144;2023-07-24T06:38:40;1.48;;;0.73;;
27365;SDS011;14837;57.148;-2.144;2023-07-24T06:41:08;1.23;;;0.40;;
27365;SDS011;14837;57.148;-2.144;2023-07-24T06:43:35;1.05;;;0.82;;
27365;SDS011;14837;57.148;-2.144;2023-07-24T06:46:02;0.63;;;0.50;;
27365;SDS011;14837;57.148;-2.144;2023-07-24T06:48:28;1.35;;;0.82;;
27365;SDS011;14837;57.148;-2.144;2023-07-24T06:50:55;0.90;;;0.70;;
27365;SDS011;14837;57.148;-2.144;2023-07-24T06:53:22;1.35;;;0.60;;
27365;SDS011;14837;57.148;-2.144;2023-07-24T06:55:48;1.67;;;0.88;;
27365;SDS011;14837;57.148;-2.144;2023-07-24T06:58:15;2.40;;;0.55;;
27365;SDS011;14837;57.148;-2.144;2023-07-24T07:00:41;2.78;;;0.70;;
27365;SDS011;14837;57.148;-2.144;2023-07-24T07:03:08;2.75;;;0.60;;
27365;SDS011;14837;57.148;-2.144;2023-07-24T07:05:34;0.70;;;0.40;;
27365;SDS011;14837;57.148;-2.144;2023-07-24T07:08:01;1.00;;;0.70;;
27365;SDS011;14837;57.148;-2.144;2023-07-24T07:10:28;1.73;;;0.50;;
27365;SDS011;14837;57.148;-2.144;2023-07-24T07:12:54;1.38;;;0.52;;
27365;SDS011;14837;57.148;-2.144;2023-07-24T07:15:21;1.23;;;0.70;;
27365;SDS011;14837;57.148;-2.144;2023-07-24T07:17:47;0.85;;;0.63;;
27365;SDS011;14837;57.148;-2.144;2023-07-24T07:20:14;0.40;;;0.40;;
27365;SDS011;14837;57.148;-2.144;2023-07-24T07:22:41;0.50;;;0.40;;
27365;SDS011;14837;57.148;-2.144;2023-07-24T07:25:07;1.08;;;0.60;;
27365;SDS011;14837;57.148;-2.144;2023-07-24T07:27:34;1.13;;;0.50;;
27365;SDS011;14837;57.148;-2.144;2023-07-24T07:30:01;1.13;;;0.30;;
27365;SDS011;14837;57.148;-2.144;2023-07-24T07:32:27;1.50;;;0.40;;
27365;SDS011;14837;57.148;-2.144;2023-07-24T07:34:54;0.75;;;0.30;;
27365;SDS011;14837;57.148;-2.144;2023-07-24T07:37:20;0.30;;;0.30;;
27365;SDS011;14837;57.148;-2.144;2023-07-24T07:39:47;0.30;;;0.30;;
27365;SDS011;14837;57.148;-2.144;2023-07-24T07:42:13;0.70;;;0.30;;
27365;SDS011;14837;57.148;-2.144;2023-07-24T07:44:45;0.30;;;0.20;;
27365;SDS011;14837;57.148;-2.144;2023-07-24T07:47:11;0.35;;;0.20;;
27365;SDS011;14837;57.148;-2.144;2023-07-24T07:49:38;0.73;;;0.25;;
27365;SDS011;14837;57.148;-2.144;2023-07-24T07:52:08;2.05;;;0.30;;
27365;SDS011;14837;57.148;-2.144;2023-07-24T07:54:35;1.00;;;0.85;;
27365;SDS011;14837;57.148;-2.144;2023-07-24T07:57:03;2.55;;;0.38;;
27365;SDS011;14837;57.148;-2.144;2023-07-24T07:59:30;1.20;;;0.30;;
27365;SDS011;14837;57.148;-2.144;2023-07-24T08:01:56;0.25;;;0.20;;
27365;SDS011;14837;57.148;-2.144;2023-07-24T08:04:23;0.30;;;0.30;;
27365;SDS011;14837;57.148;-2.144;2023-07-24T08:06:49;0.52;;;0.30;;
27365;SDS011;14837;57.148;-2.144;2023-07-24T08:09:16;0.20;;;0.20;;
27365;SDS011;14837;57.148;-2.144;2023-07-24T08:11:43;0.28;;;0.22;;
27365;SDS011;14837;57.148;-2.144;2023-07-24T08:14:10;0.30;;;0.20;;
27365;SDS011;14837;57.148;-2.144;2023-07-24T08:16:37;0.20;;;0.20;;
27365;SDS011;14837;57.148;-2.144;2023-07-24T08:19:03;1.13;;;0.30;;
27365;SDS011;14837;57.148;-2.144;2023-07-24T08:21:30;0.20;;;0.20;;
27365;SDS011;14837;57.148;-2.144;2023-07-24T08:23:56;0.20;;;0.10;;
27365;SDS011;14837;57.148;-2.144;2023-07-24T08:26:24;0.40;;;0.30;;
27365;SDS011;14837;57.148;-2.144;2023-07-24T08:28:52;0.30;;;0.20;;
27365;SDS011;14837;57.148;-2.144;2023-07-24T08:31:19;1.13;;;0.30;;
27365;SDS011;14837;57.148;-2.144;2023-07-24T08:33:46;0.13;;;0.10;;
27365;SDS011;14837;57.148;-2.144;2023-07-24T08:36:12;0.35;;;0.20;;
27365;SDS011;14837;57.148;-2.144;2023-07-24T08:38:39;0.35;;;0.20;;
27365;SDS011;14837;57.148;-2.144;2023-07-24T08:41:08;0.35;;;0.30;;
27365;SDS011;14837;57.148;-2.144;2023-07-24T08:43:35;0.68;;;0.20;;
27365;SDS011;14837;57.148;-2.144;2023-07-24T08:46:03;1.35;;;0.50;;
27365;SDS011;14837;57.148;-2.144;2023-07-24T08:48:32;0.30;;;0.20;;
27365;SDS011;14837;57.148;-2.144;2023-07-24T08:51:06;0.47;;;0.40;;
27365;SDS011;14837;57.148;-2.144;2023-07-24T08:53:34;0.90;;;0.40;;
27365;SDS011;14837;57.148;-2.144;2023-07-24T08:56:04;0.45;;;0.30;;
27365;SDS011;14837;57.148;-2.144;2023-07-24T08:58:31;0.70;;;0.20;;
27365;SDS011;14837;57.148;-2.144;2023-07-24T09:00:57;0.30;;;0.30;;
27365;SDS011;14837;57.148;-2.144;2023-07-24T09:03:25;1.48;;;0.43;;
27365;SDS011;14837;57.148;-2.144;2023-07-24T09:05:52;0.52;;;0.35;;
27365;SDS011;14837;57.148;-2.144;2023-07-24T09:08:38;0.38;;;0.38;;
27365;SDS011;14837;57.148;-2.144;2023-07-24T09:11:05;1.30;;;0.40;;
27365;SDS011;14837;57.148;-2.144;2023-07-24T09:13:32;1.52;;;0.47;;
27365;SDS011;14837;57.148;-2.144;2023-07-24T09:15:59;0.85;;;0.40;;
27365;SDS011;14837;57.148;-2.144;2023-07-24T09:18:26;1.70;;;0.30;;
27365;SDS011;14837;57.148;-2.144;2023-07-24T09:20:53;0.52;;;0.32;;
27365;SDS011;14837;57.148;-2.144;2023-07-24T09:23:28;0.20;;;0.20;;
27365;SDS011;14837;57.148;-2.144;2023-07-24T09:25:55;0.45;;;0.25;;
27365;SDS011;14837;57.148;-2.144;2023-07-24T09:28:21;1.02;;;0.40;;
27365;SDS011;14837;57.148;-2.144;2023-07-24T09:30:55;1.95;;;0.30;;
27365;SDS011;14837;57.148;-2.144;2023-07-24T09:33:22;0.85;;;0.30;;
27365;SDS011;14837;57.148;-2.144;2023-07-24T09:35:56;1.30;;;0.40;;
27365;SDS011;14837;57.148;-2.144;2023-07-24T09:38:23;0.40;;;0.40;;
27365;SDS011;14837;57.148;-2.144;2023-07-24T09:40:49;0.30;;;0.17;;
27365;SDS011;14837;57.148;-2.144;2023-07-24T09:46:05;0.65;;;0.30;;
27365;SDS011;14837;57.148;-2.144;2023-07-24T09:48:36;0.52;;;0.30;;
27365;SDS011;14837;57.148;-2.144;2023-07-24T09:51:08;0.82;;;0.77;;
27365;SDS011;14837;57.148;-2.144;2023-07-24T09:53:46;0.43;;;0.25;;
27365;SDS011;14837;57.148;-2.144;2023-07-24T09:56:17;0.63;;;0.47;;
27365;SDS011;14837;57.148;-2.144;2023-07-24T09:58:44;0.32;;;0.20;;
27365;SDS011;14837;57.148;-2.144;2023-07-24T10:01:10;1.15;;;0.30;;
27365;SDS011;14837;57.148;-2.144;2023-07-24T10:03:43;0.75;;;0.30;;
27365;SDS011;14837;57.148;-2.144;2023-07-24T10:08:38;0.45;;;0.40;;
27365;SDS011;14837;57.148;-2.144;2023-07-24T10:11:05;0.85;;;0.32;;
27365;SDS011;14837;57.148;-2.144;2023-07-24T10:13:32;1.08;;;0.40;;
27365;SDS011;14837;57.148;-2.144;2023-07-24T10:16:02;0.80;;;0.40;;
27365;SDS011;14837;57.148;-2.144;2023-07-24T10:18:31;0.73;;;0.30;;
27365;SDS011;14837;57.148;-2.144;2023-07-24T10:21:01;0.63;;;0.47;;
27365;SDS011;14837;57.148;-2.144;2023-07-24T10:23:29;0.55;;;0.30;;
27365;SDS011;14837;57.148;-2.144;2023-07-24T10:25:56;0.47;;;0.38;;
27365;SDS011;14837;57.148;-2.144;2023-07-24T10:28:35;1.15;;;0.30;;
27365;SDS011;14837;57.148;-2.144;2023-07-24T10:31:08;0.20;;;0.20;;
27365;SDS011;14837;57.148;-2.144;2023-07-24T10:33:36;1.17;;;0.30;;
27365;SDS011;14837;57.148;-2.144;2023-07-24T10:36:10;0.38;;;0.30;;
27365;SDS011;14837;57.148;-2.144;2023-07-24T10:38:41;0.95;;;0.35;;
27365;SDS011;14837;57.148;-2.144;2023-07-24T10:41:09;0.52;;;0.32;;
27365;SDS011;14837;57.148;-2.144;2023-07-24T10:43:46;0.85;;;0.32;;
27365;SDS011;14837;57.148;-2.144;2023-07-24T10:46:14;0.25;;;0.25;;
27365;SDS011;14837;57.148;-2.144;2023-07-24T10:48:42;0.25;;;0.20;;
27365;SDS011;14837;57.148;-2.144;2023-07-24T10:51:09;1.35;;;0.40;;
27365;SDS011;14837;57.148;-2.144;2023-07-24T10:53:36;0.25;;;0.20;;
27365;SDS011;14837;57.148;-2.144;2023-07-24T10:56:04;0.65;;;0.25;;
27365;SDS011;14837;57.148;-2.144;2023-07-24T10:58:31;0.52;;;0.20;;
27365;SDS011;14837;57.148;-2.144;2023-07-24T11:00:58;1.40;;;0.30;;
27365;SDS011;14837;57.148;-2.144;2023-07-24T11:03:25;0.38;;;0.20;;
27365;SDS011;14837;57.148;-2.144;2023-07-24T11:05:52;0.28;;;0.20;;
27365;SDS011;14837;57.148;-2.144;2023-07-24T11:08:20;0.30;;;0.20;;
27365;SDS011;14837;57.148;-2.144;2023-07-24T11:10:50;0.20;;;0.10;;
27365;SDS011;14837;57.148;-2.144;2023-07-24T11:13:17;0.20;;;0.20;;
27365;SDS011;14837;57.148;-2.144;2023-07-24T11:15:44;0.30;;;0.20;;
27365;SDS011;14837;57.148;-2.144;2023-07-24T11:18:11;0.10;;;0.10;;
27365;SDS011;14837;57.148;-2.144;2023-07-24T11:20:38;0.28;;;0.10;;
27365;SDS011;14837;57.148;-2.144;2023-07-24T11:23:09;0.63;;;0.25;;
27365;SDS011;14837;57.148;-2.144;2023-07-24T11:25:36;0.13;;;0.13;;
27365;SDS011;14837;57.148;-2.144;2023-07-24T11:28:06;0.50;;;0.20;;
27365;SDS011;14837;57.148;-2.144;2023-07-24T11:30:33;0.60;;;0.22;;
27365;SDS011;14837;57.148;-2.144;2023-07-24T11:33:00;0.95;;;0.30;;
27365;SDS011;14837;57.148;-2.144;2023-07-24T11:35:28;0.47;;;0.25;;
27365;SDS011;14837;57.148;-2.144;2023-07-24T11:37:54;0.68;;;0.20;;
27365;SDS011;14837;57.148;-2.144;2023-07-24T11:40:21;0.93;;;0.38;;
27365;SDS011;14837;57.148;-2.144;2023-07-24T11:42:48;0.35;;;0.20;;
27365;SDS011;14837;57.148;-2.144;2023-07-24T11:45:15;0.20;;;0.20;;
27365;SDS011;14837;57.148;-2.144;2023-07-24T11:47:45;0.20;;;0.20;;
27365;SDS011;14837;57.148;-2.144;2023-07-24T11:50:12;0.45;;;0.20;;
27365;SDS011;14837;57.148;-2.144;2023-07-24T11:55:06;0.20;;;0.20;;
27365;SDS011;14837;57.148;-2.144;2023-07-24T11:57:33;0.75;;;0.20;;
27365;SDS011;14837;57.148;-2.144;2023-07-24T12:00:00;0.35;;;0.20;;
27365;SDS011;14837;57.148;-2.144;2023-07-24T12:02:27;0.82;;;0.63;;
27365;SDS011;14837;57.148;-2.144;2023-07-24T12:04:57;0.60;;;0.25;;
27365;SDS011;14837;57.148;-2.144;2023-07-24T12:07:30;0.47;;;0.30;;
27365;SDS011;14837;57.148;-2.144;2023-07-24T12:09:57;0.25;;;0.20;;
27365;SDS011;14837;57.148;-2.144;2023-07-24T12:12:24;0.68;;;0.30;;
27365;SDS011;14837;57.148;-2.144;2023-07-24T12:14:50;0.22;;;0.20;;
27365;SDS011;14837;57.148;-2.144;2023-07-24T12:17:18;0.45;;;0.40;;
27365;SDS011;14837;57.148;-2.144;2023-07-24T12:19:46;0.40;;;0.30;;
27365;SDS011;14837;57.148;-2.144;2023-07-24T12:22:13;0.63;;;0.47;;
27365;SDS011;14837;57.148;-2.144;2023-07-24T12:24:39;0.43;;;0.22;;
27365;SDS011;14837;57.148;-2.144;2023-07-24T12:27:06;0.10;;;0.10;;
27365;SDS011;14837;57.148;-2.144;2023-07-24T12:29:33;0.85;;;0.30;;
27365;SDS011;14837;57.148;-2.144;2023-07-24T12:31:59;0.10;;;0.10;;
27365;SDS011;14837;57.148;-2.144;2023-07-24T12:34:26;1.35;;;0.25;;
27365;SDS011;14837;57.148;-2.144;2023-07-24T12:36:52;0.50;;;0.20;;
27365;SDS011;14837;57.148;-2.144;2023-07-24T12:39:20;0.65;;;0.30;;
27365;SDS011;14837;57.148;-2.144;2023-07-24T12:41:46;1.27;;;0.40;;
27365;SDS011;14837;57.148;-2.144;2023-07-24T12:44:13;0.50;;;0.30;;
27365;SDS011;14837;57.148;-2.144;2023-07-24T12:46:39;0.28;;;0.20;;
27365;SDS011;14837;57.148;-2.144;2023-07-24T12:49:06;0.52;;;0.40;;
27365;SDS011;14837;57.148;-2.144;2023-07-24T12:51:33;0.40;;;0.40;;
27365;SDS011;14837;57.148;-2.144;2023-07-24T12:53:59;1.55;;;0.30;;
27365;SDS011;14837;57.148;-2.144;2023-07-24T12:56:39;0.65;;;0.38;;
27365;SDS011;14837;57.148;-2.144;2023-07-24T12:59:06;0.25;;;0.25;;
27365;SDS011;14837;57.148;-2.144;2023-07-24T13:01:32;0.30;;;0.30;;
27365;SDS011;14837;57.148;-2.144;2023-07-24T13:03:59;0.65;;;0.30;;
27365;SDS011;14837;57.148;-2.144;2023-07-24T13:06:26;0.52;;;0.20;;
27365;SDS011;14837;57.148;-2.144;2023-07-24T13:08:53;0.30;;;0.22;;
27365;SDS011;14837;57.148;-2.144;2023-07-24T13:11:20;0.80;;;0.30;;
27365;SDS011;14837;57.148;-2.144;2023-07-24T13:13:47;1.63;;;0.47;;
27365;SDS011;14837;57.148;-2.144;2023-07-24T13:16:16;0.30;;;0.30;;
27365;SDS011;14837;57.148;-2.144;2023-07-24T13:18:43;0.45;;;0.30;;
27365;SDS011;14837;57.148;-2.144;2023-07-24T13:21:09;0.70;;;0.30;;
27365;SDS011;14837;57.148;-2.144;2023-07-24T13:23:36;0.38;;;0.20;;
27365;SDS011;14837;57.148;-2.144;2023-07-24T13:26:03;0.10;;;0.10;;
27365;SDS011;14837;57.148;-2.144;2023-07-24T13:28:29;0.28;;;0.22;;
27365;SDS011;14837;57.148;-2.144;2023-07-24T13:30:56;0.20;;;0.20;;
27365;SDS011;14837;57.148;-2.144;2023-07-24T13:33:23;0.57;;;0.30;;
27365;SDS011;14837;57.148;-2.144;2023-07-24T13:35:49;1.90;;;0.32;;
27365;SDS011;14837;57.148;-2.144;2023-07-24T13:38:16;0.10;;;0.10;;
27365;SDS011;14837;57.148;-2.144;2023-07-24T13:40:46;2.05;;;0.50;;
27365;SDS011;14837;57.148;-2.144;2023-07-24T13:43:12;0.45;;;0.32;;
27365;SDS011;14837;57.148;-2.144;2023-07-24T13:45:39;0.32;;;0.20;;
27365;SDS011;14837;57.148;-2.144;2023-07-24T13:48:06;1.20;;;0.32;;
27365;SDS011;14837;57.148;-2.144;2023-07-24T13:50:32;0.68;;;0.40;;
27365;SDS011;14837;57.148;-2.144;2023-07-24T13:52:59;0.47;;;0.20;;
27365;SDS011;14837;57.148;-2.144;2023-07-24T13:55:25;0.60;;;0.30;;
27365;SDS011;14837;57.148;-2.144;2023-07-24T13:57:52;0.40;;;0.20;;
27365;SDS011;14837;57.148;-2.144;2023-07-24T14:00:18;0.70;;;0.40;;
27365;SDS011;14837;57.148;-2.144;2023-07-24T14:02:46;1.58;;;0.35;;
27365;SDS011;14837;57.148;-2.144;2023-07-24T14:05:12;0.75;;;0.30;;
27365;SDS011;14837;57.148;-2.144;2023-07-24T14:07:39;0.30;;;0.30;;
27365;SDS011;14837;57.148;-2.144;2023-07-24T14:10:05;0.73;;;0.43;;
27365;SDS011;14837;57.148;-2.144;2023-07-24T14:12:32;0.22;;;0.20;;
27365;SDS011;14837;57.148;-2.144;2023-07-24T14:14:59;1.00;;;0.50;;
27365;SDS011;14837;57.148;-2.144;2023-07-24T14:17:25;0.63;;;0.20;;
27365;SDS011;14837;57.148;-2.144;2023-07-24T14:19:52;0.40;;;0.30;;
27365;SDS011;14837;57.148;-2.144;2023-07-24T14:22:18;0.88;;;0.30;;
27365;SDS011;14837;57.148;-2.144;2023-07-24T14:24:45;1.88;;;0.25;;
27365;SDS011;14837;57.148;-2.144;2023-07-24T14:27:13;0.22;;;0.20;;
27365;SDS011;14837;57.148;-2.144;2023-07-24T14:29:40;0.60;;;0.28;;
27365;SDS011;14837;57.148;-2.144;2023-07-24T14:32:06;0.38;;;0.30;;
27365;SDS011;14837;57.148;-2.144;2023-07-24T14:34:33;0.30;;;0.30;;
27365;SDS011;14837;57.148;-2.144;2023-07-24T14:36:59;0.30;;;0.22;;
27365;SDS011;14837;57.148;-2.144;2023-07-24T14:39:26;1.02;;;0.20;;
27365;SDS011;14837;57.148;-2.144;2023-07-24T14:41:53;0.73;;;0.35;;
27365;SDS011;14837;57.148;-2.144;2023-07-24T14:44:19;0.20;;;0.20;;
27365;SDS011;14837;57.148;-2.144;2023-07-24T14:46:46;0.38;;;0.30;;
27365;SDS011;14837;57.148;-2.144;2023-07-24T14:49:12;0.30;;;0.30;;